Lakewood, Iowa
Current Conditions -  °F | °C
As of 4:54 AM on Friday 19 Dec 2014 (Local Time) from KDSM Reporting Station
Haze Haze  
Wind Chill: 28°   Ceiling: 1500
Heat Index: 28°   Visibility: 6mi
Dew Point: 24°   Wind: 3mph
Humidity: 85%   Direction: 160°SSE
Pressure: 30.26"   Gusts: NA
Location:  41.4552°N, 93.6809°W
Report Text: KDSM 191054Z 16003KT 6SM BR BKN015 OVC042 M02/M04 A3026 RMK AO2 SNE53 SLP258 P0000 T10221044
Loading
Personal Weather Stations






























Interactive Weather Map New forecast layout! Learn more

10-Day Weather Forecast

Advertisements
Track Severe Weather on mobile